sensor_id;sensor_type;location;lat;lon;timestamp;temperature;humidity
11848;DHT22;5983;49.966;8.052;2023-08-20T00:01:12;22.30;99.90
11848;DHT22;5983;49.966;8.052;2023-08-20T00:03:41;22.20;99.90
11848;DHT22;5983;49.966;8.052;2023-08-20T00:06:09;22.20;99.90
11848;DHT22;5983;49.966;8.052;2023-08-20T00:08:37;22.20;99.90
11848;DHT22;5983;49.966;8.052;2023-08-20T00:11:06;22.20;99.90
11848;DHT22;5983;49.966;8.052;2023-08-20T00:13:33;22.20;99.90
11848;DHT22;5983;49.966;8.052;2023-08-20T00:16:00;22.20;99.90
11848;DHT22;5983;49.966;8.052;2023-08-20T00:18:29;22.20;99.90
11848;DHT22;5983;49.966;8.052;2023-08-20T00:20:57;22.20;99.90
11848;DHT22;5983;49.966;8.052;2023-08-20T00:23:25;22.20;99.90
11848;DHT22;5983;49.966;8.052;2023-08-20T00:25:53;22.20;99.90
11848;DHT22;5983;49.966;8.052;2023-08-20T00:28:22;22.20;99.90
11848;DHT22;5983;49.966;8.052;2023-08-20T00:30:49;22.20;99.90
11848;DHT22;5983;49.966;8.052;2023-08-20T00:33:17;22.10;99.90
11848;DHT22;5983;49.966;8.052;2023-08-20T00:35:44;22.10;99.90
11848;DHT22;5983;49.966;8.052;2023-08-20T00:38:11;22.10;99.90
11848;DHT22;5983;49.966;8.052;2023-08-20T00:40:38;22.10;99.90
11848;DHT22;5983;49.966;8.052;2023-08-20T00:43:04;22.10;99.90
11848;DHT22;5983;49.966;8.052;2023-08-20T00:45:34;22.10;99.90
11848;DHT22;5983;49.966;8.052;2023-08-20T00:48:01;22.00;99.90
11848;DHT22;5983;49.966;8.052;2023-08-20T00:50:29;22.00;99.90
11848;DHT22;5983;49.966;8.052;2023-08-20T00:52:56;22.00;99.90
11848;DHT22;5983;49.966;8.052;2023-08-20T00:55:23;22.00;99.90
11848;DHT22;5983;49.966;8.052;2023-08-20T00:57:50;22.00;99.90
11848;DHT22;5983;49.966;8.052;2023-08-20T01:00:18;22.00;99.90
11848;DHT22;5983;49.966;8.052;2023-08-20T01:02:47;21.90;99.90
11848;DHT22;5983;49.966;8.052;2023-08-20T01:05:14;21.90;99.90
11848;DHT22;5983;49.966;8.052;2023-08-20T01:07:50;21.90;99.90
11848;DHT22;5983;49.966;8.052;2023-08-20T01:10:33;21.90;99.90
11848;DHT22;5983;49.966;8.052;2023-08-20T01:13:09;21.80;99.90
11848;DHT22;5983;49.966;8.052;2023-08-20T01:15:36;21.80;99.90
11848;DHT22;5983;49.966;8.052;2023-08-20T01:18:05;21.80;99.90
11848;DHT22;5983;49.966;8.052;2023-08-20T01:20:37;21.70;99.90
11848;DHT22;5983;49.966;8.052;2023-08-20T01:23:29;21.70;99.90
11848;DHT22;5983;49.966;8.052;2023-08-20T01:26:48;21.70;99.90
11848;DHT22;5983;49.966;8.052;2023-08-20T01:29:28;21.60;99.90
11848;DHT22;5983;49.966;8.052;2023-08-20T01:31:56;21.60;99.90
11848;DHT22;5983;49.966;8.052;2023-08-20T01:34:23;21.50;99.90
11848;DHT22;5983;49.966;8.052;2023-08-20T01:36:51;21.40;99.90
11848;DHT22;5983;49.966;8.052;2023-08-20T01:39:18;21.40;99.90
11848;DHT22;5983;49.966;8.052;2023-08-20T01:41:45;21.30;99.90
11848;DHT22;5983;49.966;8.052;2023-08-20T01:44:12;21.30;99.90
11848;DHT22;5983;49.966;8.052;2023-08-20T01:46:40;21.30;99.90
11848;DHT22;5983;49.966;8.052;2023-08-20T01:49:07;21.30;99.90
11848;DHT22;5983;49.966;8.052;2023-08-20T01:51:34;21.20;99.90
11848;DHT22;5983;49.966;8.052;2023-08-20T01:54:02;21.20;99.90
11848;DHT22;5983;49.966;8.052;2023-08-20T01:56:29;21.20;99.90
11848;DHT22;5983;49.966;8.052;2023-08-20T01:58:56;21.20;99.90
11848;DHT22;5983;49.966;8.052;2023-08-20T02:01:23;21.20;99.90
11848;DHT22;5983;49.966;8.052;2023-08-20T02:03:51;21.20;99.90
11848;DHT22;5983;49.966;8.052;2023-08-20T02:06:18;21.20;99.90
11848;DHT22;5983;49.966;8.052;2023-08-20T02:08:45;21.20;99.90
11848;DHT22;5983;49.966;8.052;2023-08-20T02:11:12;21.20;99.90
11848;DHT22;5983;49.966;8.052;2023-08-20T02:13:39;21.20;99.90
11848;DHT22;5983;49.966;8.052;2023-08-20T02:16:06;21.10;99.90
11848;DHT22;5983;49.966;8.052;2023-08-20T02:18:33;21.20;99.90
11848;DHT22;5983;49.966;8.052;2023-08-20T02:21:01;21.10;99.90
11848;DHT22;5983;49.966;8.052;2023-08-20T02:23:29;21.00;99.90
11848;DHT22;5983;49.966;8.052;2023-08-20T02:25:56;21.00;99.90
11848;DHT22;5983;49.966;8.052;2023-08-20T02:28:23;21.00;99.90
11848;DHT22;5983;49.966;8.052;2023-08-20T02:30:50;20.90;99.90
11848;DHT22;5983;49.966;8.052;2023-08-20T02:33:17;20.90;99.90
11848;DHT22;5983;49.966;8.052;2023-08-20T02:35:44;20.80;99.90
11848;DHT22;5983;49.966;8.052;2023-08-20T02:40:43;20.90;99.90
11848;DHT22;5983;49.966;8.052;2023-08-20T02:43:10;20.80;99.90
11848;DHT22;5983;49.966;8.052;2023-08-20T02:45:40;20.80;99.90
11848;DHT22;5983;49.966;8.052;2023-08-20T02:48:08;20.80;99.90
11848;DHT22;5983;49.966;8.052;2023-08-20T02:50:36;20.90;99.90
11848;DHT22;5983;49.966;8.052;2023-08-20T02:53:03;20.80;99.90
11848;DHT22;5983;49.966;8.052;2023-08-20T02:55:30;20.80;99.90
11848;DHT22;5983;49.966;8.052;2023-08-20T02:57:59;20.80;99.90
11848;DHT22;5983;49.966;8.052;2023-08-20T03:00:26;20.80;99.90
11848;DHT22;5983;49.966;8.052;2023-08-20T03:02:53;20.70;99.90
11848;DHT22;5983;49.966;8.052;2023-08-20T03:05:21;20.70;99.90
11848;DHT22;5983;49.966;8.052;2023-08-20T03:07:48;20.70;99.90
11848;DHT22;5983;49.966;8.052;2023-08-20T03:10:15;20.70;99.90
11848;DHT22;5983;49.966;8.052;2023-08-20T03:12:42;20.70;99.90
11848;DHT22;5983;49.966;8.052;2023-08-20T03:15:11;20.70;99.90
11848;DHT22;5983;49.966;8.052;2023-08-20T03:17:37;20.60;99.90
11848;DHT22;5983;49.966;8.052;2023-08-20T03:20:05;20.70;99.90
11848;DHT22;5983;49.966;8.052;2023-08-20T03:22:35;20.60;99.90
11848;DHT22;5983;49.966;8.052;2023-08-20T03:25:04;20.60;99.90
11848;DHT22;5983;49.966;8.052;2023-08-20T03:27:31;20.70;99.90
11848;DHT22;5983;49.966;8.052;2023-08-20T03:29:58;20.60;99.90
11848;DHT22;5983;49.966;8.052;2023-08-20T03:32:27;20.60;99.90
11848;DHT22;5983;49.966;8.052;2023-08-20T03:34:54;20.50;99.90
11848;DHT22;5983;49.966;8.052;2023-08-20T03:37:21;20.50;99.90
11848;DHT22;5983;49.966;8.052;2023-08-20T03:39:48;20.50;99.90
11848;DHT22;5983;49.966;8.052;2023-08-20T03:42:15;20.40;99.90
11848;DHT22;5983;49.966;8.052;2023-08-20T03:44:42;20.40;99.90
11848;DHT22;5983;49.966;8.052;2023-08-20T03:47:09;20.40;99.90
11848;DHT22;5983;49.966;8.052;2023-08-20T03:49:37;20.40;99.90
11848;DHT22;5983;49.966;8.052;2023-08-20T03:52:05;20.50;99.90
11848;DHT22;5983;49.966;8.052;2023-08-20T03:54:33;20.40;99.90
11848;DHT22;5983;49.966;8.052;2023-08-20T03:57:00;20.50;99.90
11848;DHT22;5983;49.966;8.052;2023-08-20T03:59:27;20.50;99.90
11848;DHT22;5983;49.966;8.052;2023-08-20T04:01:54;20.50;99.90
11848;DHT22;5983;49.966;8.052;2023-08-20T04:04:21;20.40;99.90
11848;DHT22;5983;49.966;8.052;2023-08-20T04:06:49;20.40;99.90
11848;DHT22;5983;49.966;8.052;2023-08-20T04:09:16;20.40;99.90
11848;DHT22;5983;49.966;8.052;2023-08-20T04:11:43;20.40;99.90
11848;DHT22;5983;49.966;8.052;2023-08-20T04:14:10;20.40;99.90
11848;DHT22;5983;49.966;8.052;2023-08-20T04:16:37;20.30;99.90
11848;DHT22;5983;49.966;8.052;2023-08-20T04:19:04;20.40;99.90
11848;DHT22;5983;49.966;8.052;2023-08-20T04:21:31;20.40;99.90
11848;DHT22;5983;49.966;8.052;2023-08-20T04:23:59;20.40;99.90
11848;DHT22;5983;49.966;8.052;2023-08-20T04:26:26;20.50;99.90
11848;DHT22;5983;49.966;8.052;2023-08-20T04:28:53;20.50;99.90
11848;DHT22;5983;49.966;8.052;2023-08-20T04:31:20;20.60;99.90
11848;DHT22;5983;49.966;8.052;2023-08-20T04:33:47;20.60;99.90
11848;DHT22;5983;49.966;8.052;2023-08-20T04:36:13;20.60;99.90
11848;DHT22;5983;49.966;8.052;2023-08-20T04:38:40;20.60;99.90
11848;DHT22;5983;49.966;8.052;2023-08-20T04:41:09;20.50;99.90
11848;DHT22;5983;49.966;8.052;2023-08-20T04:43:36;20.60;99.90
11848;DHT22;5983;49.966;8.052;2023-08-20T04:46:02;20.50;99.90
11848;DHT22;5983;49.966;8.052;2023-08-20T04:48:29;20.60;99.90
11848;DHT22;5983;49.966;8.052;2023-08-20T04:50:56;20.60;99.90
11848;DHT22;5983;49.966;8.052;2023-08-20T04:53:24;20.60;99.90
11848;DHT22;5983;49.966;8.052;2023-08-20T04:55:51;20.60;99.90
11848;DHT22;5983;49.966;8.052;2023-08-20T04:58:19;20.60;99.90
11848;DHT22;5983;49.966;8.052;2023-08-20T05:00:46;20.60;99.90
11848;DHT22;5983;49.966;8.052;2023-08-20T05:03:13;20.70;99.90
11848;DHT22;5983;49.966;8.052;2023-08-20T05:05:40;20.70;99.90
11848;DHT22;5983;49.966;8.052;2023-08-20T05:08:07;20.70;99.90
11848;DHT22;5983;49.966;8.052;2023-08-20T05:10:35;20.80;99.90
11848;DHT22;5983;49.966;8.052;2023-08-20T05:13:03;20.80;99.90
11848;DHT22;5983;49.966;8.052;2023-08-20T05:15:31;20.90;99.90
11848;DHT22;5983;49.966;8.052;2023-08-20T05:17:58;20.90;99.90
11848;DHT22;5983;49.966;8.052;2023-08-20T05:20:25;20.90;99.90
11848;DHT22;5983;49.966;8.052;2023-08-20T05:22:52;20.90;99.90
11848;DHT22;5983;49.966;8.052;2023-08-20T05:25:19;21.00;99.90
11848;DHT22;5983;49.966;8.052;2023-08-20T05:27:46;21.10;99.90
11848;DHT22;5983;49.966;8.052;2023-08-20T05:30:13;21.20;99.90
11848;DHT22;5983;49.966;8.052;2023-08-20T05:32:41;21.20;99.90
11848;DHT22;5983;49.966;8.052;2023-08-20T05:35:08;21.30;99.90
11848;DHT22;5983;49.966;8.052;2023-08-20T05:37:35;21.30;99.90
11848;DHT22;5983;49.966;8.052;2023-08-20T05:40:02;21.40;99.90
11848;DHT22;5983;49.966;8.052;2023-08-20T05:42:29;21.40;99.90
11848;DHT22;5983;49.966;8.052;2023-08-20T05:44:56;21.50;99.90
11848;DHT22;5983;49.966;8.052;2023-08-20T05:47:23;21.50;99.90
11848;DHT22;5983;49.966;8.052;2023-08-20T05:49:51;21.60;99.90
11848;DHT22;5983;49.966;8.052;2023-08-20T05:52:19;21.70;99.90
11848;DHT22;5983;49.966;8.052;2023-08-20T05:54:46;21.70;99.90
11848;DHT22;5983;49.966;8.052;2023-08-20T05:57:13;21.80;99.90
11848;DHT22;5983;49.966;8.052;2023-08-20T05:59:40;22.00;99.90
11848;DHT22;5983;49.966;8.052;2023-08-20T06:02:07;22.00;99.90
11848;DHT22;5983;49.966;8.052;2023-08-20T06:04:34;22.10;99.90
11848;DHT22;5983;49.966;8.052;2023-08-20T06:07:02;22.30;99.90
11848;DHT22;5983;49.966;8.052;2023-08-20T06:09:29;22.40;99.90
11848;DHT22;5983;49.966;8.052;2023-08-20T06:11:56;22.50;99.90
11848;DHT22;5983;49.966;8.052;2023-08-20T06:14:23;22.60;99.90
11848;DHT22;5983;49.966;8.052;2023-08-20T06:16:50;22.80;99.90
11848;DHT22;5983;49.966;8.052;2023-08-20T06:19:17;23.00;99.90
11848;DHT22;5983;49.966;8.052;2023-08-20T06:21:43;23.20;99.90
11848;DHT22;5983;49.966;8.052;2023-08-20T06:24:12;23.50;99.90
11848;DHT22;5983;49.966;8.052;2023-08-20T06:26:39;23.70;99.90
11848;DHT22;5983;49.966;8.052;2023-08-20T06:29:05;23.70;99.90
11848;DHT22;5983;49.966;8.052;2023-08-20T06:31:32;23.70;99.90
11848;DHT22;5983;49.966;8.052;2023-08-20T06:34:00;23.70;99.90
11848;DHT22;5983;49.966;8.052;2023-08-20T06:36:27;23.80;99.90
11848;DHT22;5983;49.966;8.052;2023-08-20T06:38:54;24.00;99.90
11848;DHT22;5983;49.966;8.052;2023-08-20T06:41:23;24.20;99.90
11848;DHT22;5983;49.966;8.052;2023-08-20T06:43:50;24.40;99.90
11848;DHT22;5983;49.966;8.052;2023-08-20T06:46:17;24.70;99.90
11848;DHT22;5983;49.966;8.052;2023-08-20T06:48:43;24.90;99.90
11848;DHT22;5983;49.966;8.052;2023-08-20T06:51:11;24.90;99.90
11848;DHT22;5983;49.966;8.052;2023-08-20T06:53:38;24.90;99.90
11848;DHT22;5983;49.966;8.052;2023-08-20T06:56:06;24.90;99.90
11848;DHT22;5983;49.966;8.052;2023-08-20T06:58:35;25.00;99.90
11848;DHT22;5983;49.966;8.052;2023-08-20T07:01:02;25.00;99.90
11848;DHT22;5983;49.966;8.052;2023-08-20T07:03:33;25.10;99.90
11848;DHT22;5983;49.966;8.052;2023-08-20T07:06:01;25.30;99.90
11848;DHT22;5983;49.966;8.052;2023-08-20T07:08:29;25.40;99.90
11848;DHT22;5983;49.966;8.052;2023-08-20T07:10:56;25.50;99.90
11848;DHT22;5983;49.966;8.052;2023-08-20T07:13:23;25.70;99.90
11848;DHT22;5983;49.966;8.052;2023-08-20T07:15:51;25.90;99.90
11848;DHT22;5983;49.966;8.052;2023-08-20T07:18:18;26.20;99.90
11848;DHT22;5983;49.966;8.052;2023-08-20T07:20:45;26.50;99.90
11848;DHT22;5983;49.966;8.052;2023-08-20T07:23:13;26.70;99.90
11848;DHT22;5983;49.966;8.052;2023-08-20T07:25:41;26.90;99.90
11848;DHT22;5983;49.966;8.052;2023-08-20T07:28:09;27.10;99.90
11848;DHT22;5983;49.966;8.052;2023-08-20T07:30:37;27.30;99.90
11848;DHT22;5983;49.966;8.052;2023-08-20T07:33:06;27.50;99.90
11848;DHT22;5983;49.966;8.052;2023-08-20T07:35:33;27.70;99.90
11848;DHT22;5983;49.966;8.052;2023-08-20T07:38:01;27.90;99.90
11848;DHT22;5983;49.966;8.052;2023-08-20T07:40:28;28.00;99.90
11848;DHT22;5983;49.966;8.052;2023-08-20T07:42:55;28.20;99.90
11848;DHT22;5983;49.966;8.052;2023-08-20T07:45:22;28.20;99.90
11848;DHT22;5983;49.966;8.052;2023-08-20T07:47:49;28.40;99.90
11848;DHT22;5983;49.966;8.052;2023-08-20T07:50:18;28.50;99.90
11848;DHT22;5983;49.966;8.052;2023-08-20T07:52:44;28.70;99.90
11848;DHT22;5983;49.966;8.052;2023-08-20T07:55:11;28.90;99.90
11848;DHT22;5983;49.966;8.052;2023-08-20T07:57:38;29.10;99.90
11848;DHT22;5983;49.966;8.052;2023-08-20T08:00:06;29.30;99.90
11848;DHT22;5983;49.966;8.052;2023-08-20T08:02:34;29.40;99.90
11848;DHT22;5983;49.966;8.052;2023-08-20T08:05:00;29.50;99.90
11848;DHT22;5983;49.966;8.052;2023-08-20T08:07:29;29.50;99.90
11848;DHT22;5983;49.966;8.052;2023-08-20T08:09:56;29.60;99.90
11848;DHT22;5983;49.966;8.052;2023-08-20T08:12:22;29.70;99.90
11848;DHT22;5983;49.966;8.052;2023-08-20T08:14:49;29.80;99.90
11848;DHT22;5983;49.966;8.052;2023-08-20T08:17:16;29.90;99.90
11848;DHT22;5983;49.966;8.052;2023-08-20T08:19:43;30.00;99.90
11848;DHT22;5983;49.966;8.052;2023-08-20T08:22:10;30.10;99.90
11848;DHT22;5983;49.966;8.052;2023-08-20T08:24:38;30.30;99.90
11848;DHT22;5983;49.966;8.052;2023-08-20T08:27:07;30.50;99.90
11848;DHT22;5983;49.966;8.052;2023-08-20T08:29:34;30.70;99.90
11848;DHT22;5983;49.966;8.052;2023-08-20T08:32:01;30.80;99.90
11848;DHT22;5983;49.966;8.052;2023-08-20T08:34:28;30.90;99.90
11848;DHT22;5983;49.966;8.052;2023-08-20T08:36:55;31.00;99.90
11848;DHT22;5983;49.966;8.052;2023-08-20T08:39:21;31.10;99.90
11848;DHT22;5983;49.966;8.052;2023-08-20T08:41:51;31.10;99.90
11848;DHT22;5983;49.966;8.052;2023-08-20T08:44:22;31.20;99.90
11848;DHT22;5983;49.966;8.052;2023-08-20T08:46:50;31.20;99.90
11848;DHT22;5983;49.966;8.052;2023-08-20T08:49:18;31.30;99.90
11848;DHT22;5983;49.966;8.052;2023-08-20T08:51:46;31.50;99.90
11848;DHT22;5983;49.966;8.052;2023-08-20T08:54:14;31.70;99.90
11848;DHT22;5983;49.966;8.052;2023-08-20T08:56:42;31.80;99.90
11848;DHT22;5983;49.966;8.052;2023-08-20T08:59:10;32.00;99.90
11848;DHT22;5983;49.966;8.052;2023-08-20T09:01:38;32.10;99.90
11848;DHT22;5983;49.966;8.052;2023-08-20T09:04:05;32.20;99.90
11848;DHT22;5983;49.966;8.052;2023-08-20T09:06:44;32.30;99.90
11848;DHT22;5983;49.966;8.052;2023-08-20T09:09:13;32.40;99.90
11848;DHT22;5983;49.966;8.052;2023-08-20T09:11:40;32.40;99.90
11848;DHT22;5983;49.966;8.052;2023-08-20T09:14:07;32.50;99.90
11848;DHT22;5983;49.966;8.052;2023-08-20T09:16:35;32.50;99.90
11848;DHT22;5983;49.966;8.052;2023-08-20T09:19:03;32.40;99.90
11848;DHT22;5983;49.966;8.052;2023-08-20T09:21:30;32.50;99.90
11848;DHT22;5983;49.966;8.052;2023-08-20T09:23:57;32.50;99.90
11848;DHT22;5983;49.966;8.052;2023-08-20T09:26:24;32.70;99.90
11848;DHT22;5983;49.966;8.052;2023-08-20T09:28:54;32.80;99.90
11848;DHT22;5983;49.966;8.052;2023-08-20T09:31:38;32.90;99.90
11848;DHT22;5983;49.966;8.052;2023-08-20T09:34:06;33.10;99.90
11848;DHT22;5983;49.966;8.052;2023-08-20T09:36:34;33.20;99.90
11848;DHT22;5983;49.966;8.052;2023-08-20T09:39:02;33.20;99.90
11848;DHT22;5983;49.966;8.052;2023-08-20T09:41:29;33.20;99.90
11848;DHT22;5983;49.966;8.052;2023-08-20T09:43:58;33.20;99.90
11848;DHT22;5983;49.966;8.052;2023-08-20T09:46:27;33.30;99.90
11848;DHT22;5983;49.966;8.052;2023-08-20T09:48:59;33.40;99.90
11848;DHT22;5983;49.966;8.052;2023-08-20T09:51:28;33.60;99.90
11848;DHT22;5983;49.966;8.052;2023-08-20T09:54:06;33.60;99.90
11848;DHT22;5983;49.966;8.052;2023-08-20T09:56:40;33.70;99.90
11848;DHT22;5983;49.966;8.052;2023-08-20T09:59:10;33.80;99.90
11848;DHT22;5983;49.966;8.052;2023-08-20T10:01:38;33.80;99.90
11848;DHT22;5983;49.966;8.052;2023-08-20T10:04:07;33.90;99.90
11848;DHT22;5983;49.966;8.052;2023-08-20T10:06:35;33.90;99.90
11848;DHT22;5983;49.966;8.052;2023-08-20T10:09:04;33.70;99.90
11848;DHT22;5983;49.966;8.052;2023-08-20T10:11:31;33.60;99.90
11848;DHT22;5983;49.966;8.052;2023-08-20T10:13:58;33.70;99.90
11848;DHT22;5983;49.966;8.052;2023-08-20T10:16:27;33.60;99.90
11848;DHT22;5983;49.966;8.052;2023-08-20T10:18:54;33.70;99.90
11848;DHT22;5983;49.966;8.052;2023-08-20T10:21:26;33.90;99.90
11848;DHT22;5983;49.966;8.052;2023-08-20T10:23:54;34.00;99.90
11848;DHT22;5983;49.966;8.052;2023-08-20T10:26:21;34.10;99.90
11848;DHT22;5983;49.966;8.052;2023-08-20T10:28:49;34.20;99.90
11848;DHT22;5983;49.966;8.052;2023-08-20T10:31:17;34.20;99.90
11848;DHT22;5983;49.966;8.052;2023-08-20T10:33:55;34.20;99.90
11848;DHT22;5983;49.966;8.052;2023-08-20T10:36:23;34.30;99.90
11848;DHT22;5983;49.966;8.052;2023-08-20T10:38:54;34.30;99.90
11848;DHT22;5983;49.966;8.052;2023-08-20T10:41:25;34.20;99.90
11848;DHT22;5983;49.966;8.052;2023-08-20T10:43:52;34.20;99.90
11848;DHT22;5983;49.966;8.052;2023-08-20T10:46:24;34.40;99.90
11848;DHT22;5983;49.966;8.052;2023-08-20T10:48:52;34.50;99.90
11848;DHT22;5983;49.966;8.052;2023-08-20T10:51:27;34.70;99.90
11848;DHT22;5983;49.966;8.052;2023-08-20T10:54:06;34.90;99.90
11848;DHT22;5983;49.966;8.052;2023-08-20T10:56:39;35.00;99.90
11848;DHT22;5983;49.966;8.052;2023-08-20T10:59:08;35.10;99.90
11848;DHT22;5983;49.966;8.052;2023-08-20T11:01:36;35.10;99.90
11848;DHT22;5983;49.966;8.052;2023-08-20T11:04:04;35.10;99.90
11848;DHT22;5983;49.966;8.052;2023-08-20T11:06:34;35.10;99.90
11848;DHT22;5983;49.966;8.052;2023-08-20T11:09:01;35.00;99.80
11848;DHT22;5983;49.966;8.052;2023-08-20T11:11:30;34.90;99.70
11848;DHT22;5983;49.966;8.052;2023-08-20T11:14:05;34.90;99.90
11848;DHT22;5983;49.966;8.052;2023-08-20T11:16:34;34.90;99.30
11848;DHT22;5983;49.966;8.052;2023-08-20T11:19:02;34.80;99.30
11848;DHT22;5983;49.966;8.052;2023-08-20T11:21:35;34.70;99.20
11848;DHT22;5983;49.966;8.052;2023-08-20T11:24:03;34.80;99.40
11848;DHT22;5983;49.966;8.052;2023-08-20T11:26:30;34.90;99.30
11848;DHT22;5983;49.966;8.052;2023-08-20T11:28:57;35.00;99.50
11848;DHT22;5983;49.966;8.052;2023-08-20T11:31:25;35.20;99.90
11848;DHT22;5983;49.966;8.052;2023-08-20T11:33:52;35.30;98.90
11848;DHT22;5983;49.966;8.052;2023-08-20T11:36:20;35.30;97.60
11848;DHT22;5983;49.966;8.052;2023-08-20T11:38:50;35.30;97.60
11848;DHT22;5983;49.966;8.052;2023-08-20T11:41:18;35.30;97.60
11848;DHT22;5983;49.966;8.052;2023-08-20T11:43:46;35.30;96.60
11848;DHT22;5983;49.966;8.052;2023-08-20T11:46:13;35.30;96.80
11848;DHT22;5983;49.966;8.052;2023-08-20T11:48:58;35.20;96.70
11848;DHT22;5983;49.966;8.052;2023-08-20T11:51:27;35.10;97.10
11848;DHT22;5983;49.966;8.052;2023-08-20T11:53:55;35.10;95.90
11848;DHT22;5983;49.966;8.052;2023-08-20T11:56:23;35.10;96.00
11848;DHT22;5983;49.966;8.052;2023-08-20T11:58:50;35.10;96.40
11848;DHT22;5983;49.966;8.052;2023-08-20T12:01:18;35.20;95.90
11848;DHT22;5983;49.966;8.052;2023-08-20T12:03:45;35.10;95.90
11848;DHT22;5983;49.966;8.052;2023-08-20T12:06:19;35.20;96.70
11848;DHT22;5983;49.966;8.052;2023-08-20T12:08:48;35.30;97.70
11848;DHT22;5983;49.966;8.052;2023-08-20T12:11:16;35.40;96.20
11848;DHT22;5983;49.966;8.052;2023-08-20T12:13:43;35.30;96.60
11848;DHT22;5983;49.966;8.052;2023-08-20T12:16:10;35.30;96.30
11848;DHT22;5983;49.966;8.052;2023-08-20T12:18:37;35.40;96.10
11848;DHT22;5983;49.966;8.052;2023-08-20T12:21:04;35.30;95.50
11848;DHT22;5983;49.966;8.052;2023-08-20T12:23:31;35.30;94.70
11848;DHT22;5983;49.966;8.052;2023-08-20T12:25:58;35.20;94.10
11848;DHT22;5983;49.966;8.052;2023-08-20T12:28:27;35.10;94.50
11848;DHT22;5983;49.966;8.052;2023-08-20T12:30:54;35.10;95.00
11848;DHT22;5983;49.966;8.052;2023-08-20T12:33:21;35.10;95.90
11848;DHT22;5983;49.966;8.052;2023-08-20T12:35:48;35.20;95.30
11848;DHT22;5983;49.966;8.052;2023-08-20T12:38:15;35.20;94.60
11848;DHT22;5983;49.966;8.052;2023-08-20T12:40:43;35.30;94.50
11848;DHT22;5983;49.966;8.052;2023-08-20T12:43:10;35.40;95.10
11848;DHT22;5983;49.966;8.052;2023-08-20T12:45:38;35.40;96.00
11848;DHT22;5983;49.966;8.052;2023-08-20T12:48:05;35.50;96.60
11848;DHT22;5983;49.966;8.052;2023-08-20T12:50:33;35.50;96.50
11848;DHT22;5983;49.966;8.052;2023-08-20T12:53:00;35.50;95.50
11848;DHT22;5983;49.966;8.052;2023-08-20T12:55:27;35.60;95.90
11848;DHT22;5983;49.966;8.052;2023-08-20T12:57:55;35.50;95.90
11848;DHT22;5983;49.966;8.052;2023-08-20T13:00:24;35.50;94.30
11848;DHT22;5983;49.966;8.052;2023-08-20T13:02:53;35.40;94.80
11848;DHT22;5983;49.966;8.052;2023-08-20T13:05:22;35.30;93.30
11848;DHT22;5983;49.966;8.052;2023-08-20T13:07:51;35.20;93.40
11848;DHT22;5983;49.966;8.052;2023-08-20T13:10:20;35.20;94.60
11848;DHT22;5983;49.966;8.052;2023-08-20T13:12:48;35.10;95.10
11848;DHT22;5983;49.966;8.052;2023-08-20T13:15:17;35.20;95.10
11848;DHT22;5983;49.966;8.052;2023-08-20T13:17:47;35.20;93.10
11848;DHT22;5983;49.966;8.052;2023-08-20T13:20:17;35.10;93.30
11848;DHT22;5983;49.966;8.052;2023-08-20T13:22:47;34.90;93.80
11848;DHT22;5983;49.966;8.052;2023-08-20T13:25:14;34.80;93.40
11848;DHT22;5983;49.966;8.052;2023-08-20T13:27:41;34.80;93.30
11848;DHT22;5983;49.966;8.052;2023-08-20T13:30:09;34.80;93.30
11848;DHT22;5983;49.966;8.052;2023-08-20T13:32:37;34.90;93.70
11848;DHT22;5983;49.966;8.052;2023-08-20T13:35:04;34.90;92.90
11848;DHT22;5983;49.966;8.052;2023-08-20T13:37:34;35.00;93.70
11848;DHT22;5983;49.966;8.052;2023-08-20T13:40:01;35.00;93.40
11848;DHT22;5983;49.966;8.052;2023-08-20T13:42:30;35.10;93.30
11848;DHT22;5983;49.966;8.052;2023-08-20T13:44:57;35.20;93.00
11848;DHT22;5983;49.966;8.052;2023-08-20T13:47:24;35.30;93.50
11848;DHT22;5983;49.966;8.052;2023-08-20T13:49:51;35.40;94.30
11848;DHT22;5983;49.966;8.052;2023-08-20T13:52:18;35.40;94.20
11848;DHT22;5983;49.966;8.052;2023-08-20T13:54:46;35.40;94.40
11848;DHT22;5983;49.966;8.052;2023-08-20T13:57:13;35.30;92.90
11848;DHT22;5983;49.966;8.052;2023-08-20T13:59:40;35.10;91.60
11848;DHT22;5983;49.966;8.052;2023-08-20T14:02:07;35.10;90.80
11848;DHT22;5983;49.966;8.052;2023-08-20T14:04:35;35.00;93.20
11848;DHT22;5983;49.966;8.052;2023-08-20T14:07:02;34.80;92.30
11848;DHT22;5983;49.966;8.052;2023-08-20T14:09:29;34.70;91.20
11848;DHT22;5983;49.966;8.052;2023-08-20T14:11:57;34.60;91.50
11848;DHT22;5983;49.966;8.052;2023-08-20T14:14:24;34.50;92.20
11848;DHT22;5983;49.966;8.052;2023-08-20T14:16:51;34.50;93.70
11848;DHT22;5983;49.966;8.052;2023-08-20T14:19:18;34.40;93.10
11848;DHT22;5983;49.966;8.052;2023-08-20T14:21:45;34.30;91.90
11848;DHT22;5983;49.966;8.052;2023-08-20T14:24:12;34.20;92.20
11848;DHT22;5983;49.966;8.052;2023-08-20T14:26:39;34.20;91.80
11848;DHT22;5983;49.966;8.052;2023-08-20T14:29:07;34.20;91.30
11848;DHT22;5983;49.966;8.052;2023-08-20T14:31:34;34.10;90.80
11848;DHT22;5983;49.966;8.052;2023-08-20T14:34:01;34.10;90.10
11848;DHT22;5983;49.966;8.052;2023-08-20T14:36:28;34.00;90.30
11848;DHT22;5983;49.966;8.052;2023-08-20T14:38:55;34.00;90.40
11848;DHT22;5983;49.966;8.052;2023-08-20T14:41:22;34.00;90.80
11848;DHT22;5983;49.966;8.052;2023-08-20T14:43:49;34.00;91.80
11848;DHT22;5983;49.966;8.052;2023-08-20T14:46:17;33.80;92.60
11848;DHT22;5983;49.966;8.052;2023-08-20T14:48:45;33.80;94.40
11848;DHT22;5983;49.966;8.052;2023-08-20T14:51:12;33.60;95.70
11848;DHT22;5983;49.966;8.052;2023-08-20T14:53:39;33.50;97.00
11848;DHT22;5983;49.966;8.052;2023-08-20T14:56:06;33.40;97.60
11848;DHT22;5983;49.966;8.052;2023-08-20T14:58:33;33.30;98.10
11848;DHT22;5983;49.966;8.052;2023-08-20T15:01:00;33.30;98.30
11848;DHT22;5983;49.966;8.052;2023-08-20T15:03:28;33.10;98.10
11848;DHT22;5983;49.966;8.052;2023-08-20T15:05:56;33.10;98.50
11848;DHT22;5983;49.966;8.052;2023-08-20T15:08:23;33.00;98.30
11848;DHT22;5983;49.966;8.052;2023-08-20T15:10:56;32.90;98.40
11848;DHT22;5983;49.966;8.052;2023-08-20T15:13:24;32.90;97.50
11848;DHT22;5983;49.966;8.052;2023-08-20T15:15:51;32.80;97.10
11848;DHT22;5983;49.966;8.052;2023-08-20T15:18:19;32.70;96.90
11848;DHT22;5983;49.966;8.052;2023-08-20T15:20:53;32.70;98.60
11848;DHT22;5983;49.966;8.052;2023-08-20T15:23:22;32.60;99.10
11848;DHT22;5983;49.966;8.052;2023-08-20T15:25:51;32.60;98.50
11848;DHT22;5983;49.966;8.052;2023-08-20T15:28:18;32.50;98.60
11848;DHT22;5983;49.966;8.052;2023-08-20T15:30:45;32.50;99.80
11848;DHT22;5983;49.966;8.052;2023-08-20T15:33:12;32.40;99.90
11848;DHT22;5983;49.966;8.052;2023-08-20T15:35:40;32.40;99.90
11848;DHT22;5983;49.966;8.052;2023-08-20T15:38:08;32.30;99.90
11848;DHT22;5983;49.966;8.052;2023-08-20T15:40:36;32.30;99.90
11848;DHT22;5983;49.966;8.052;2023-08-20T15:43:04;32.20;99.90
11848;DHT22;5983;49.966;8.052;2023-08-20T15:45:32;32.10;99.90
11848;DHT22;5983;49.966;8.052;2023-08-20T15:47:59;32.10;99.90
11848;DHT22;5983;49.966;8.052;2023-08-20T15:50:26;32.00;99.90
11848;DHT22;5983;49.966;8.052;2023-08-20T15:52:53;31.90;99.90